Pagina principale
METAR-TAF:

METAR-TAF

Aeroporti :

Aeroporto Internazionale di Città del Capo

Città del Capo, Sudafrica

latitudine: 33-59S, longitudine: 018-36E, altezza: 42 m

Osservazione

Il bollettino è stato emesso 1 ora e 14 minuti fa, alle 22:00 UTC
Vento 12 kt da sud/sud-est
Temperature 19°C
Umidità 60%
Pressione 1012 hPa
Visibilità 10 km o più
nessuna nube inferiore a 1500 m e nessun cumulonembo

METAR: FACT 222200Z 15012KT CAVOK 19/11 Q1012 NOSIG

Ora: 01:14 (23:14 UTC)

Previsione

Il bollettino è stato emesso 7 ore e 14 minuti fa, alle 16:00 UTC
Previsione valida dal 22 alle 18 UTC al 23 alle 24 UTC
Vento 12 kt da sud/sud-est
Visibilità 10 km o più
nessuna nube inferiore a 1500 m e nessun cumulonembo

TAF: FACT 221600Z 2218/2324 16012KT CAVOK TX29/2312Z TN15/2304Z

Osservazioni e previsioni meteorologiche di più di 4000 aeroporti (messaggi METAR e TAF).

Le stazioni disponibili sono rappresentate dai dischi gialli e rossi sulla carta.

Puntare il mouse per vedere il nome della stazione.

Clicca sopra per visualizzare le osservazioni e previsioni meteorologiche.

Per cambiare la mappa : fare clic sui pulsanti verdi con una croce nera per ingrandire, il pulsante verde con un trattino per diminuire, o sulla freccia verde per le mappe adiacenti.


METAR-TAF: